sensor_id;sensor_type;location;lat;lon;timestamp;pressure;altitude;pressure_sealevel;temperature;humidity
35307;BME280;21420;52.196;21.416;2023-04-24T00:01:32;99448.90;;;9.26;44.88
35307;BME280;21420;52.196;21.416;2023-04-24T00:04:00;99445.27;;;9.22;44.95
35307;BME280;21420;52.196;21.416;2023-04-24T00:06:28;99447.36;;;9.18;44.96
35307;BME280;21420;52.196;21.416;2023-04-24T00:09:00;99446.27;;;9.16;45.04
35307;BME280;21420;52.196;21.416;2023-04-24T00:11:28;99446.23;;;9.14;45.19
35307;BME280;21420;52.196;21.416;2023-04-24T00:13:55;99443.29;;;9.11;45.32
35307;BME280;21420;52.196;21.416;2023-04-24T00:16:23;99438.27;;;9.08;45.35
35307;BME280;21420;52.196;21.416;2023-04-24T00:18:50;99439.35;;;9.05;45.35
35307;BME280;21420;52.196;21.416;2023-04-24T00:21:19;99433.74;;;9.00;45.41
35307;BME280;21420;52.196;21.416;2023-04-24T00:23:46;99430.85;;;8.94;45.49
35307;BME280;21420;52.196;21.416;2023-04-24T00:26:12;99427.83;;;8.89;45.54
35307;BME280;21420;52.196;21.416;2023-04-24T00:28:39;99425.19;;;8.84;45.69
35307;BME280;21420;52.196;21.416;2023-04-24T00:31:06;99422.34;;;8.79;45.76
35307;BME280;21420;52.196;21.416;2023-04-24T00:33:33;99422.52;;;8.74;45.82
35307;BME280;21420;52.196;21.416;2023-04-24T00:36:00;99419.42;;;8.70;45.87
35307;BME280;21420;52.196;21.416;2023-04-24T00:38:26;99419.73;;;8.64;46.03
35307;BME280;21420;52.196;21.416;2023-04-24T00:40:53;99419.34;;;8.59;46.09
35307;BME280;21420;52.196;21.416;2023-04-24T00:43:20;99418.91;;;8.52;46.14
35307;BME280;21420;52.196;21.416;2023-04-24T00:45:47;99420.69;;;8.48;46.25
35307;BME280;21420;52.196;21.416;2023-04-24T00:48:14;99421.91;;;8.46;46.38
35307;BME280;21420;52.196;21.416;2023-04-24T00:50:41;99424.27;;;8.43;46.42
35307;BME280;21420;52.196;21.416;2023-04-24T00:53:08;99422.48;;;8.41;46.57
35307;BME280;21420;52.196;21.416;2023-04-24T00:55:35;99417.74;;;8.40;46.66
35307;BME280;21420;52.196;21.416;2023-04-24T00:58:04;99421.58;;;8.38;46.72
35307;BME280;21420;52.196;21.416;2023-04-24T01:00:31;99416.15;;;8.36;46.77
35307;BME280;21420;52.196;21.416;2023-04-24T01:02:59;99411.21;;;8.32;46.82
35307;BME280;21420;52.196;21.416;2023-04-24T01:05:28;99412.51;;;8.29;46.84
35307;BME280;21420;52.196;21.416;2023-04-24T01:07:55;99406.73;;;8.26;47.02
35307;BME280;21420;52.196;21.416;2023-04-24T01:10:22;99410.59;;;8.25;47.09
35307;BME280;21420;52.196;21.416;2023-04-24T01:12:51;99411.90;;;8.24;47.08
35307;BME280;21420;52.196;21.416;2023-04-24T01:15:18;99409.09;;;8.24;47.17
35307;BME280;21420;52.196;21.416;2023-04-24T01:17:47;99408.07;;;8.24;47.30
35307;BME280;21420;52.196;21.416;2023-04-24T01:20:14;99402.17;;;8.22;47.36
35307;BME280;21420;52.196;21.416;2023-04-24T01:22:42;99403.25;;;8.21;47.51
35307;BME280;21420;52.196;21.416;2023-04-24T01:25:09;99404.77;;;8.20;47.54
35307;BME280;21420;52.196;21.416;2023-04-24T01:27:35;99411.28;;;8.17;47.48
35307;BME280;21420;52.196;21.416;2023-04-24T01:30:05;99408.09;;;8.10;47.53
35307;BME280;21420;52.196;21.416;2023-04-24T01:32:32;99403.11;;;8.02;47.55
35307;BME280;21420;52.196;21.416;2023-04-24T01:34:59;99397.39;;;7.96;47.59
35307;BME280;21420;52.196;21.416;2023-04-24T01:37:26;99396.23;;;7.93;47.77
35307;BME280;21420;52.196;21.416;2023-04-24T01:39:53;99395.11;;;7.92;47.85
35307;BME280;21420;52.196;21.416;2023-04-24T01:42:20;99395.15;;;7.91;47.89
35307;BME280;21420;52.196;21.416;2023-04-24T01:44:46;99387.54;;;7.89;48.04
35307;BME280;21420;52.196;21.416;2023-04-24T01:47:13;99383.48;;;7.87;48.05
35307;BME280;21420;52.196;21.416;2023-04-24T01:49:40;99381.63;;;7.85;48.18
35307;BME280;21420;52.196;21.416;2023-04-24T01:52:07;99384.16;;;7.84;48.27
35307;BME280;21420;52.196;21.416;2023-04-24T01:54:34;99385.04;;;7.84;48.27
35307;BME280;21420;52.196;21.416;2023-04-24T01:57:01;99381.98;;;7.86;48.34
35307;BME280;21420;52.196;21.416;2023-04-24T01:59:29;99381.27;;;7.88;48.41
35307;BME280;21420;52.196;21.416;2023-04-24T02:01:56;99382.38;;;7.91;48.48
35307;BME280;21420;52.196;21.416;2023-04-24T02:04:22;99383.42;;;7.95;48.57
35307;BME280;21420;52.196;21.416;2023-04-24T02:06:49;99383.27;;;7.97;48.50
35307;BME280;21420;52.196;21.416;2023-04-24T02:09:16;99379.28;;;8.00;48.69
35307;BME280;21420;52.196;21.416;2023-04-24T02:11:43;99375.01;;;8.02;48.79
35307;BME280;21420;52.196;21.416;2023-04-24T02:14:10;99378.09;;;8.06;48.85
35307;BME280;21420;52.196;21.416;2023-04-24T02:16:50;99380.81;;;8.09;48.87
35307;BME280;21420;52.196;21.416;2023-04-24T02:19:17;99372.11;;;8.09;48.84
35307;BME280;21420;52.196;21.416;2023-04-24T02:21:44;99366.97;;;8.10;48.85
35307;BME280;21420;52.196;21.416;2023-04-24T02:24:10;99371.73;;;8.10;48.89
35307;BME280;21420;52.196;21.416;2023-04-24T02:26:37;99371.23;;;8.11;48.95
35307;BME280;21420;52.196;21.416;2023-04-24T02:29:03;99373.81;;;8.12;48.92
35307;BME280;21420;52.196;21.416;2023-04-24T02:31:30;99368.16;;;8.10;48.96
35307;BME280;21420;52.196;21.416;2023-04-24T02:33:57;99363.16;;;8.07;49.09
35307;BME280;21420;52.196;21.416;2023-04-24T02:36:23;99355.61;;;8.05;49.06
35307;BME280;21420;52.196;21.416;2023-04-24T02:38:50;99353.27;;;8.05;49.14
35307;BME280;21420;52.196;21.416;2023-04-24T02:41:16;99350.44;;;8.03;49.17
35307;BME280;21420;52.196;21.416;2023-04-24T02:43:43;99348.89;;;8.01;49.23
35307;BME280;21420;52.196;21.416;2023-04-24T02:46:10;99343.23;;;8.00;49.29
35307;BME280;21420;52.196;21.416;2023-04-24T02:48:36;99340.95;;;7.99;49.24
35307;BME280;21420;52.196;21.416;2023-04-24T02:51:03;99342.40;;;7.98;49.42
35307;BME280;21420;52.196;21.416;2023-04-24T02:53:30;99342.85;;;7.98;49.48
35307;BME280;21420;52.196;21.416;2023-04-24T02:55:57;99345.92;;;7.96;49.55
35307;BME280;21420;52.196;21.416;2023-04-24T02:58:24;99349.56;;;7.92;49.55
35307;BME280;21420;52.196;21.416;2023-04-24T03:00:55;99357.16;;;7.89;49.54
35307;BME280;21420;52.196;21.416;2023-04-24T03:03:22;99358.17;;;7.86;49.49
35307;BME280;21420;52.196;21.416;2023-04-24T03:05:49;99350.50;;;7.85;49.64
35307;BME280;21420;52.196;21.416;2023-04-24T03:08:16;99352.70;;;7.86;49.70
35307;BME280;21420;52.196;21.416;2023-04-24T03:10:43;99354.69;;;7.87;49.88
35307;BME280;21420;52.196;21.416;2023-04-24T03:13:16;99354.85;;;7.90;49.87
35307;BME280;21420;52.196;21.416;2023-04-24T03:15:43;99352.04;;;7.92;49.94
35307;BME280;21420;52.196;21.416;2023-04-24T03:18:09;99348.47;;;7.92;49.97
35307;BME280;21420;52.196;21.416;2023-04-24T03:20:36;99353.46;;;7.93;50.00
35307;BME280;21420;52.196;21.416;2023-04-24T03:23:04;99351.23;;;7.92;49.94
35307;BME280;21420;52.196;21.416;2023-04-24T03:25:31;99349.10;;;7.90;50.08
35307;BME280;21420;52.196;21.416;2023-04-24T03:27:57;99348.33;;;7.88;50.11
35307;BME280;21420;52.196;21.416;2023-04-24T03:30:34;99348.17;;;7.86;50.12
35307;BME280;21420;52.196;21.416;2023-04-24T03:33:01;99348.00;;;7.82;50.13
35307;BME280;21420;52.196;21.416;2023-04-24T03:35:29;99345.79;;;7.79;50.28
35307;BME280;21420;52.196;21.416;2023-04-24T03:37:59;99346.23;;;7.78;50.28
35307;BME280;21420;52.196;21.416;2023-04-24T03:40:38;99350.23;;;7.79;50.42
35307;BME280;21420;52.196;21.416;2023-04-24T03:43:12;99352.95;;;7.81;50.55
35307;BME280;21420;52.196;21.416;2023-04-24T03:45:38;99354.22;;;7.85;50.53
35307;BME280;21420;52.196;21.416;2023-04-24T03:48:05;99352.42;;;7.87;50.50
35307;BME280;21420;52.196;21.416;2023-04-24T03:50:32;99348.23;;;7.90;50.52
35307;BME280;21420;52.196;21.416;2023-04-24T03:52:59;99342.90;;;7.94;50.67
35307;BME280;21420;52.196;21.416;2023-04-24T03:55:33;99342.89;;;7.99;50.79
35307;BME280;21420;52.196;21.416;2023-04-24T03:58:00;99344.27;;;8.03;50.88
35307;BME280;21420;52.196;21.416;2023-04-24T04:00:27;99345.27;;;8.08;50.94
35307;BME280;21420;52.196;21.416;2023-04-24T04:03:02;99346.39;;;8.12;50.88
35307;BME280;21420;52.196;21.416;2023-04-24T04:05:29;99342.70;;;8.16;51.00
35307;BME280;21420;52.196;21.416;2023-04-24T04:07:56;99343.84;;;8.21;51.02
35307;BME280;21420;52.196;21.416;2023-04-24T04:10:23;99342.91;;;8.26;51.09
35307;BME280;21420;52.196;21.416;2023-04-24T04:12:50;99348.60;;;8.34;51.08
35307;BME280;21420;52.196;21.416;2023-04-24T04:15:16;99347.83;;;8.42;51.18
35307;BME280;21420;52.196;21.416;2023-04-24T04:17:43;99343.27;;;8.48;51.20
35307;BME280;21420;52.196;21.416;2023-04-24T04:20:10;99342.94;;;8.56;51.25
35307;BME280;21420;52.196;21.416;2023-04-24T04:22:37;99342.77;;;8.64;51.23
35307;BME280;21420;52.196;21.416;2023-04-24T04:25:07;99346.88;;;8.72;51.16
35307;BME280;21420;52.196;21.416;2023-04-24T04:27:34;99352.52;;;8.81;51.31
35307;BME280;21420;52.196;21.416;2023-04-24T04:30:05;99352.70;;;8.91;51.35
35307;BME280;21420;52.196;21.416;2023-04-24T04:32:38;99353.92;;;9.05;51.31
35307;BME280;21420;52.196;21.416;2023-04-24T04:35:05;99355.02;;;9.21;51.46
35307;BME280;21420;52.196;21.416;2023-04-24T04:37:33;99357.84;;;9.40;51.49
35307;BME280;21420;52.196;21.416;2023-04-24T04:40:12;99360.98;;;9.60;51.55
35307;BME280;21420;52.196;21.416;2023-04-24T04:42:47;99358.22;;;9.81;51.60
35307;BME280;21420;52.196;21.416;2023-04-24T04:45:14;99366.40;;;10.04;51.56
35307;BME280;21420;52.196;21.416;2023-04-24T04:47:58;99371.02;;;10.26;51.56
35307;BME280;21420;52.196;21.416;2023-04-24T04:50:28;99371.95;;;10.44;51.48
35307;BME280;21420;52.196;21.416;2023-04-24T04:52:56;99367.11;;;10.59;51.48
35307;BME280;21420;52.196;21.416;2023-04-24T04:55:27;99362.30;;;10.72;51.42
35307;BME280;21420;52.196;21.416;2023-04-24T04:58:06;99362.77;;;10.85;51.35
35307;BME280;21420;52.196;21.416;2023-04-24T05:00:33;99364.73;;;10.97;51.36
35307;BME280;21420;52.196;21.416;2023-04-24T05:03:06;99363.20;;;11.12;51.30
35307;BME280;21420;52.196;21.416;2023-04-24T05:05:49;99363.30;;;11.27;51.30
35307;BME280;21420;52.196;21.416;2023-04-24T05:08:16;99358.66;;;11.40;51.31
35307;BME280;21420;52.196;21.416;2023-04-24T05:10:53;99354.97;;;11.52;51.22
35307;BME280;21420;52.196;21.416;2023-04-24T05:13:20;99356.44;;;11.66;51.13
35307;BME280;21420;52.196;21.416;2023-04-24T05:15:58;99350.90;;;11.78;51.10
35307;BME280;21420;52.196;21.416;2023-04-24T05:18:25;99353.55;;;11.92;51.14
35307;BME280;21420;52.196;21.416;2023-04-24T05:20:52;99350.45;;;12.04;50.96
35307;BME280;21420;52.196;21.416;2023-04-24T05:23:19;99353.33;;;12.14;50.81
35307;BME280;21420;52.196;21.416;2023-04-24T05:25:50;99351.39;;;12.21;50.81
35307;BME280;21420;52.196;21.416;2023-04-24T05:28:18;99350.09;;;12.31;50.90
35307;BME280;21420;52.196;21.416;2023-04-24T05:30:50;99348.77;;;12.43;50.75
35307;BME280;21420;52.196;21.416;2023-04-24T05:33:17;99350.39;;;12.54;50.62
35307;BME280;21420;52.196;21.416;2023-04-24T05:35:44;99348.99;;;12.62;50.52
35307;BME280;21420;52.196;21.416;2023-04-24T05:38:14;99350.27;;;12.70;50.50
35307;BME280;21420;52.196;21.416;2023-04-24T05:40:44;99347.79;;;12.79;50.46
35307;BME280;21420;52.196;21.416;2023-04-24T05:43:10;99343.76;;;12.85;50.26
35307;BME280;21420;52.196;21.416;2023-04-24T05:45:38;99342.70;;;12.96;50.20
35307;BME280;21420;52.196;21.416;2023-04-24T05:48:05;99342.11;;;13.07;50.28
35307;BME280;21420;52.196;21.416;2023-04-24T05:50:32;99341.96;;;13.17;50.19
35307;BME280;21420;52.196;21.416;2023-04-24T05:53:02;99342.92;;;13.26;49.70
35307;BME280;21420;52.196;21.416;2023-04-24T05:55:32;99342.98;;;13.31;49.89
35307;BME280;21420;52.196;21.416;2023-04-24T05:57:59;99341.55;;;13.38;49.86
35307;BME280;21420;52.196;21.416;2023-04-24T06:00:26;99337.66;;;13.42;49.82
35307;BME280;21420;52.196;21.416;2023-04-24T06:02:57;99336.55;;;13.50;49.83
35307;BME280;21420;52.196;21.416;2023-04-24T06:05:26;99334.34;;;13.59;49.61
35307;BME280;21420;52.196;21.416;2023-04-24T06:07:53;99335.05;;;13.71;49.58
35307;BME280;21420;52.196;21.416;2023-04-24T06:10:21;99331.94;;;13.87;49.73
35307;BME280;21420;52.196;21.416;2023-04-24T06:12:48;99333.37;;;14.03;49.67
35307;BME280;21420;52.196;21.416;2023-04-24T06:15:16;99330.69;;;14.15;49.65
35307;BME280;21420;52.196;21.416;2023-04-24T06:17:56;99333.38;;;14.33;49.50
35307;BME280;21420;52.196;21.416;2023-04-24T06:20:23;99333.57;;;14.56;49.45
35307;BME280;21420;52.196;21.416;2023-04-24T06:22:50;99332.86;;;14.80;49.56
35307;BME280;21420;52.196;21.416;2023-04-24T06:25:17;99331.65;;;14.98;49.48
35307;BME280;21420;52.196;21.416;2023-04-24T06:27:44;99330.57;;;15.17;49.25
35307;BME280;21420;52.196;21.416;2023-04-24T06:30:11;99331.54;;;15.19;48.95
35307;BME280;21420;52.196;21.416;2023-04-24T06:32:38;99331.05;;;15.27;48.91
35307;BME280;21420;52.196;21.416;2023-04-24T06:35:05;99329.17;;;15.76;49.27
35307;BME280;21420;52.196;21.416;2023-04-24T06:37:33;99320.84;;;16.33;49.17
35307;BME280;21420;52.196;21.416;2023-04-24T06:40:00;99319.56;;;17.02;48.89
35307;BME280;21420;52.196;21.416;2023-04-24T06:42:27;99320.32;;;17.79;48.96
35307;BME280;21420;52.196;21.416;2023-04-24T06:44:54;99315.70;;;18.47;48.22
35307;BME280;21420;52.196;21.416;2023-04-24T06:47:21;99311.98;;;19.01;47.87
35307;BME280;21420;52.196;21.416;2023-04-24T06:49:48;99313.89;;;19.57;47.40
35307;BME280;21420;52.196;21.416;2023-04-24T06:52:17;99313.09;;;19.90;46.81
35307;BME280;21420;52.196;21.416;2023-04-24T06:54:43;99312.64;;;20.19;46.24
35307;BME280;21420;52.196;21.416;2023-04-24T06:57:10;99314.62;;;20.35;45.74
35307;BME280;21420;52.196;21.416;2023-04-24T06:59:37;99314.45;;;20.56;45.50
35307;BME280;21420;52.196;21.416;2023-04-24T07:02:04;99311.92;;;20.88;45.44
35307;BME280;21420;52.196;21.416;2023-04-24T07:04:31;99315.21;;;21.25;45.17
35307;BME280;21420;52.196;21.416;2023-04-24T07:06:58;99311.70;;;21.65;45.14
35307;BME280;21420;52.196;21.416;2023-04-24T07:09:25;99311.60;;;22.09;44.83
35307;BME280;21420;52.196;21.416;2023-04-24T07:11:53;99309.67;;;22.61;44.92
35307;BME280;21420;52.196;21.416;2023-04-24T07:14:20;99311.03;;;23.40;44.89
35307;BME280;21420;52.196;21.416;2023-04-24T07:16:47;99310.27;;;23.83;43.89
35307;BME280;21420;52.196;21.416;2023-04-24T07:19:14;99307.39;;;24.11;43.61
35307;BME280;21420;52.196;21.416;2023-04-24T07:21:41;99310.05;;;24.48;43.07
35307;BME280;21420;52.196;21.416;2023-04-24T07:24:07;99306.29;;;24.59;42.63
35307;BME280;21420;52.196;21.416;2023-04-24T07:26:37;99306.64;;;25.01;42.92
35307;BME280;21420;52.196;21.416;2023-04-24T07:29:06;99302.83;;;25.64;42.52
35307;BME280;21420;52.196;21.416;2023-04-24T07:31:33;99305.19;;;25.99;42.12
35307;BME280;21420;52.196;21.416;2023-04-24T07:34:00;99304.46;;;26.57;42.31
35307;BME280;21420;52.196;21.416;2023-04-24T07:36:27;99302.56;;;27.19;41.67
35307;BME280;21420;52.196;21.416;2023-04-24T07:38:54;99301.23;;;27.33;41.44
35307;BME280;21420;52.196;21.416;2023-04-24T07:41:22;99300.50;;;27.89;41.38
35307;BME280;21420;52.196;21.416;2023-04-24T07:43:51;99292.51;;;28.45;41.12
35307;BME280;21420;52.196;21.416;2023-04-24T07:46:19;99294.02;;;28.79;40.27
35307;BME280;21420;52.196;21.416;2023-04-24T07:48:46;99291.48;;;28.26;38.82
35307;BME280;21420;52.196;21.416;2023-04-24T07:51:27;99281.85;;;27.72;38.56
35307;BME280;21420;52.196;21.416;2023-04-24T07:53:54;99277.38;;;27.81;39.10
35307;BME280;21420;52.196;21.416;2023-04-24T07:56:23;99274.10;;;28.32;39.40
35307;BME280;21420;52.196;21.416;2023-04-24T07:58:53;99278.45;;;28.86;39.18
35307;BME280;21420;52.196;21.416;2023-04-24T08:01:19;99272.63;;;28.68;37.81
35307;BME280;21420;52.196;21.416;2023-04-24T08:03:46;99268.63;;;28.54;38.15
35307;BME280;21420;52.196;21.416;2023-04-24T08:06:13;99269.50;;;28.73;37.77
35307;BME280;21420;52.196;21.416;2023-04-24T08:08:40;99271.80;;;28.73;37.10
35307;BME280;21420;52.196;21.416;2023-04-24T08:11:06;99269.31;;;28.55;36.72
35307;BME280;21420;52.196;21.416;2023-04-24T08:13:33;99270.63;;;28.44;36.93
35307;BME280;21420;52.196;21.416;2023-04-24T08:16:00;99267.17;;;28.85;37.45
35307;BME280;21420;52.196;21.416;2023-04-24T08:18:27;99269.64;;;29.54;37.55
35307;BME280;21420;52.196;21.416;2023-04-24T08:20:54;99263.64;;;29.97;37.37
35307;BME280;21420;52.196;21.416;2023-04-24T08:23:20;99263.13;;;30.41;36.72
35307;BME280;21420;52.196;21.416;2023-04-24T08:25:48;99265.08;;;30.31;35.79
35307;BME280;21420;52.196;21.416;2023-04-24T08:28:15;99260.97;;;29.90;35.46
35307;BME280;21420;52.196;21.416;2023-04-24T08:30:46;99263.85;;;30.21;36.18
35307;BME280;21420;52.196;21.416;2023-04-24T08:33:14;99261.23;;;30.47;35.28
35307;BME280;21420;52.196;21.416;2023-04-24T08:35:41;99261.52;;;30.32;35.25
35307;BME280;21420;52.196;21.416;2023-04-24T08:38:08;99259.05;;;30.49;35.33
35307;BME280;21420;52.196;21.416;2023-04-24T08:40:35;99256.58;;;30.81;35.10
35307;BME280;21420;52.196;21.416;2023-04-24T08:43:03;99258.34;;;30.95;34.78
35307;BME280;21420;52.196;21.416;2023-04-24T08:45:30;99255.80;;;30.89;34.55
35307;BME280;21420;52.196;21.416;2023-04-24T08:47:57;99258.25;;;31.14;34.66
35307;BME280;21420;52.196;21.416;2023-04-24T08:50:25;99253.88;;;31.16;34.08
35307;BME280;21420;52.196;21.416;2023-04-24T08:52:52;99248.09;;;31.00;33.94
35307;BME280;21420;52.196;21.416;2023-04-24T08:55:20;99250.94;;;31.20;33.95
35307;BME280;21420;52.196;21.416;2023-04-24T08:57:51;99251.46;;;30.90;33.30
35307;BME280;21420;52.196;21.416;2023-04-24T09:00:22;99253.01;;;30.77;33.31
35307;BME280;21420;52.196;21.416;2023-04-24T09:02:50;99250.30;;;30.79;33.14
35307;BME280;21420;52.196;21.416;2023-04-24T09:05:17;99255.77;;;30.28;32.58
35307;BME280;21420;52.196;21.416;2023-04-24T09:07:55;99253.34;;;29.87;32.81
35307;BME280;21420;52.196;21.416;2023-04-24T09:10:25;99245.50;;;29.93;33.39
35307;BME280;21420;52.196;21.416;2023-04-24T09:12:52;99248.83;;;29.87;32.89
35307;BME280;21420;52.196;21.416;2023-04-24T09:15:20;99242.54;;;29.85;33.07
35307;BME280;21420;52.196;21.416;2023-04-24T09:17:47;99245.98;;;30.25;33.59
35307;BME280;21420;52.196;21.416;2023-04-24T09:20:14;99246.61;;;30.42;33.06
35307;BME280;21420;52.196;21.416;2023-04-24T09:22:42;99242.54;;;30.59;33.76
35307;BME280;21420;52.196;21.416;2023-04-24T09:25:10;99236.94;;;31.36;33.89
35307;BME280;21420;52.196;21.416;2023-04-24T09:27:42;99238.44;;;31.75;33.13
35307;BME280;21420;52.196;21.416;2023-04-24T09:30:13;99233.03;;;31.56;32.67
35307;BME280;21420;52.196;21.416;2023-04-24T09:32:40;99227.63;;;31.54;32.70
35307;BME280;21420;52.196;21.416;2023-04-24T09:37:46;99234.79;;;31.42;31.60
35307;BME280;21420;52.196;21.416;2023-04-24T09:40:20;99234.34;;;31.23;32.30
35307;BME280;21420;52.196;21.416;2023-04-24T09:42:56;99240.61;;;31.32;32.03
35307;BME280;21420;52.196;21.416;2023-04-24T09:45:37;99235.70;;;31.17;31.97
35307;BME280;21420;52.196;21.416;2023-04-24T09:48:04;99233.05;;;31.21;31.91
35307;BME280;21420;52.196;21.416;2023-04-24T09:50:33;99232.88;;;30.99;31.42
35307;BME280;21420;52.196;21.416;2023-04-24T09:53:02;99228.39;;;30.76;31.75
35307;BME280;21420;52.196;21.416;2023-04-24T09:55:31;99223.05;;;30.75;31.79
35307;BME280;21420;52.196;21.416;2023-04-24T09:57:59;99223.88;;;30.83;31.76
35307;BME280;21420;52.196;21.416;2023-04-24T10:00:32;99226.05;;;31.08;31.90
35307;BME280;21420;52.196;21.416;2023-04-24T10:03:01;99225.45;;;31.02;31.46
35307;BME280;21420;52.196;21.416;2023-04-24T10:05:35;99222.51;;;30.63;31.09
35307;BME280;21420;52.196;21.416;2023-04-24T10:08:08;99220.38;;;30.68;31.72
35307;BME280;21420;52.196;21.416;2023-04-24T10:10:42;99219.66;;;30.89;31.68
35307;BME280;21420;52.196;21.416;2023-04-24T10:13:10;99221.02;;;30.91;31.40
35307;BME280;21420;52.196;21.416;2023-04-24T10:15:38;99223.09;;;30.73;31.13
35307;BME280;21420;52.196;21.416;2023-04-24T10:18:06;99223.08;;;30.50;31.08
35307;BME280;21420;52.196;21.416;2023-04-24T10:20:36;99224.77;;;30.73;31.56
35307;BME280;21420;52.196;21.416;2023-04-24T10:23:03;99224.84;;;30.82;31.44
35307;BME280;21420;52.196;21.416;2023-04-24T10:25:33;99222.17;;;30.73;31.31
35307;BME280;21420;52.196;21.416;2023-04-24T10:28:01;99220.65;;;30.71;31.21
35307;BME280;21420;52.196;21.416;2023-04-24T10:30:30;99211.85;;;30.84;31.51
35307;BME280;21420;52.196;21.416;2023-04-24T10:32:57;99213.38;;;31.22;31.40
35307;BME280;21420;52.196;21.416;2023-04-24T10:35:24;99210.94;;;31.17;30.85
35307;BME280;21420;52.196;21.416;2023-04-24T10:37:59;99208.56;;;30.80;30.59
35307;BME280;21420;52.196;21.416;2023-04-24T10:40:33;99204.48;;;30.71;30.98
35307;BME280;21420;52.196;21.416;2023-04-24T10:43:07;99206.90;;;31.03;31.01
35307;BME280;21420;52.196;21.416;2023-04-24T10:45:37;99205.95;;;30.91;30.32
35307;BME280;21420;52.196;21.416;2023-04-24T10:48:06;99204.84;;;30.78;30.62
35307;BME280;21420;52.196;21.416;2023-04-24T10:53:16;99197.91;;;31.12;30.63
35307;BME280;21420;52.196;21.416;2023-04-24T10:56:05;99195.84;;;31.09;30.36
35307;BME280;21420;52.196;21.416;2023-04-24T10:58:40;99196.98;;;31.19;30.49
35307;BME280;21420;52.196;21.416;2023-04-24T11:01:27;99191.48;;;31.32;30.58
35307;BME280;21420;52.196;21.416;2023-04-24T11:03:56;99193.64;;;31.45;30.68
35307;BME280;21420;52.196;21.416;2023-04-24T11:06:31;99187.91;;;31.64;30.54
35307;BME280;21420;52.196;21.416;2023-04-24T11:09:04;99193.70;;;31.47;30.01
35307;BME280;21420;52.196;21.416;2023-04-24T11:11:33;99193.45;;;30.81;29.28
35307;BME280;21420;52.196;21.416;2023-04-24T11:14:03;99188.08;;;30.22;29.44
35307;BME280;21420;52.196;21.416;2023-04-24T11:16:39;99178.70;;;30.07;29.93
35307;BME280;21420;52.196;21.416;2023-04-24T11:21:44;99183.36;;;30.68;30.26
35307;BME280;21420;52.196;21.416;2023-04-24T11:24:25;99178.44;;;30.53;29.79
35307;BME280;21420;52.196;21.416;2023-04-24T11:26:57;99168.31;;;30.33;29.98
35307;BME280;21420;52.196;21.416;2023-04-24T11:29:47;99170.42;;;30.40;29.98
35307;BME280;21420;52.196;21.416;2023-04-24T11:37:21;99168.36;;;29.99;30.05
35307;BME280;21420;52.196;21.416;2023-04-24T11:39:51;99163.16;;;29.62;29.68
35307;BME280;21420;52.196;21.416;2023-04-24T11:42:18;99159.08;;;29.54;30.02
35307;BME280;21420;52.196;21.416;2023-04-24T11:44:46;99163.52;;;29.71;29.99
35307;BME280;21420;52.196;21.416;2023-04-24T11:47:14;99161.14;;;29.50;29.66
35307;BME280;21420;52.196;21.416;2023-04-24T11:49:41;99163.29;;;29.28;29.51
35307;BME280;21420;52.196;21.416;2023-04-24T11:52:07;99162.50;;;28.91;29.38
35307;BME280;21420;52.196;21.416;2023-04-24T11:54:34;99159.36;;;28.69;29.28
35307;BME280;21420;52.196;21.416;2023-04-24T11:57:04;99155.30;;;28.57;29.34
35307;BME280;21420;52.196;21.416;2023-04-24T11:59:36;99149.13;;;28.61;29.46
35307;BME280;21420;52.196;21.416;2023-04-24T12:02:03;99147.39;;;28.66;29.46
35307;BME280;21420;52.196;21.416;2023-04-24T12:04:38;99145.44;;;28.62;29.36
35307;BME280;21420;52.196;21.416;2023-04-24T12:07:07;99141.11;;;28.78;29.74
35307;BME280;21420;52.196;21.416;2023-04-24T12:09:44;99135.97;;;29.03;29.89
35307;BME280;21420;52.196;21.416;2023-04-24T12:12:15;99137.91;;;29.14;29.55
35307;BME280;21420;52.196;21.416;2023-04-24T12:15:08;99135.27;;;29.19;29.75
35307;BME280;21420;52.196;21.416;2023-04-24T12:17:35;99129.77;;;29.22;29.35
35307;BME280;21420;52.196;21.416;2023-04-24T12:20:07;99131.52;;;29.23;29.43
35307;BME280;21420;52.196;21.416;2023-04-24T12:22:47;99130.10;;;29.04;29.36
35307;BME280;21420;52.196;21.416;2023-04-24T12:25:16;99126.53;;;28.98;29.18
35307;BME280;21420;52.196;21.416;2023-04-24T12:27:46;99123.24;;;28.70;29.37
35307;BME280;21420;52.196;21.416;2023-04-24T12:30:18;99125.13;;;28.58;29.53
35307;BME280;21420;52.196;21.416;2023-04-24T12:32:46;99120.73;;;28.51;29.37
35307;BME280;21420;52.196;21.416;2023-04-24T12:35:19;99112.14;;;28.56;29.66
35307;BME280;21420;52.196;21.416;2023-04-24T12:37:47;99109.34;;;28.56;29.33
35307;BME280;21420;52.196;21.416;2023-04-24T12:40:14;99113.23;;;28.09;28.81
35307;BME280;21420;52.196;21.416;2023-04-24T12:45:10;99107.55;;;26.34;28.98
35307;BME280;21420;52.196;21.416;2023-04-24T12:47:39;99110.01;;;25.81;29.33
35307;BME280;21420;52.196;21.416;2023-04-24T12:50:11;99104.73;;;25.63;29.54
35307;BME280;21420;52.196;21.416;2023-04-24T12:52:39;99097.77;;;25.84;30.14
35307;BME280;21420;52.196;21.416;2023-04-24T12:55:06;99088.45;;;26.42;30.53
35307;BME280;21420;52.196;21.416;2023-04-24T12:57:38;99088.54;;;26.59;30.00
35307;BME280;21420;52.196;21.416;2023-04-24T13:00:07;99093.22;;;26.02;29.56
35307;BME280;21420;52.196;21.416;2023-04-24T13:02:34;99092.64;;;25.43;29.69
35307;BME280;21420;52.196;21.416;2023-04-24T13:05:02;99086.72;;;24.97;29.95
35307;BME280;21420;52.196;21.416;2023-04-24T13:07:29;99088.98;;;24.71;30.35
35307;BME280;21420;52.196;21.416;2023-04-24T13:09:56;99086.66;;;24.46;30.45
35307;BME280;21420;52.196;21.416;2023-04-24T13:12:24;99091.86;;;24.17;30.57
35307;BME280;21420;52.196;21.416;2023-04-24T13:14:52;99105.54;;;23.94;30.76
35307;BME280;21420;52.196;21.416;2023-04-24T13:17:20;99119.58;;;23.71;30.78